Station Historical Data
Daily Summary for March 25, 2017 Units:  Metric    English   Both
« Previous Day
Next Day »
Daily Weekly Monthly Yearly Custom
  High: Low: Average:
Temperature: 6.6 °C 1.3 °C 3.1 °C
Dew Point: 3.7 °C -0.3 °C 1.3 °C
Humidity: 91% 82% 88%
Wind Speed: 25.7km/h 0km/h 9.5km/h
Wind Gust: 29km/h - -
Wind- - ENE
Pressure: 1028 hPa 1019.2 hPa -
Precipitation: 0 mm    
Historical Graphs
 
 
Tabular Data for March 25, 2017
Time Temperature Dew Point Pressure Wind Wind Speed Wind Gust Humidity Rainfall Rate (Hourly)
00:04 6.6 °C 3.7 °C 1019.2 hPa NE 9.7 km/h 19.3 km/h 82% 0 mm
00:09 6.5 °C 3.7 °C 1019.2 hPa NE 8 km/h 16.1 km/h 82% 0 mm
00:14 6.4 °C 3.6 °C 1019.2 hPa NE 9.7 km/h 19.3 km/h 82% 0 mm
00:19 6.4 °C 3.6 °C 1019.2 hPa ENE 14.5 km/h 17.7 km/h 82% 0 mm
00:24 6.3 °C 3.5 °C 1019.2 hPa NE 11.3 km/h 20.9 km/h 82% 0 mm
00:29 6.3 °C 3.5 °C 1019.5 hPa NNE 11.3 km/h 19.3 km/h 82% 0 mm
00:34 6.3 °C 3.4 °C 1019.2 hPa ENE 8 km/h 16.1 km/h 82% 0 mm
00:39 6.2 °C 3.4 °C 1019.2 hPa NE 11.3 km/h 17.7 km/h 82% 0 mm
00:44 6.2 °C 3.4 °C 1019.5 hPa NE 6.4 km/h 12.9 km/h 82% 0 mm
00:49 6.2 °C 3.4 °C 1019.5 hPa NE 8 km/h 12.9 km/h 82% 0 mm
00:54 6.2 °C 3.3 °C 1019.9 hPa East 1.6 km/h 11.3 km/h 82% 0.25 mm
00:59 6.1 °C 3.4 °C 1020.2 hPa ENE 4.8 km/h 11.3 km/h 83% 0.25 mm
01:04 6.1 °C 3.6 °C 1019.9 hPa ENE 4.8 km/h 14.5 km/h 84% 0.51 mm
01:09 5.9 °C 3.4 °C 1019.9 hPa ENE 6.4 km/h 14.5 km/h 84% 0.51 mm
01:14 5.8 °C 3.3 °C 1019.5 hPa NE 8 km/h 19.3 km/h 84% 0.51 mm
01:19 5.8 °C 3.4 °C 1019.2 hPa ENE 8 km/h 19.3 km/h 85% 0.51 mm
01:24 5.7 °C 3.4 °C 1019.5 hPa ENE 4.8 km/h 16.1 km/h 85% 0.76 mm
01:29 5.7 °C 3.5 °C 1019.9 hPa NE 3.2 km/h 9.7 km/h 86% 1.02 mm
01:34 5.6 °C 3.4 °C 1019.9 hPa NE 6.4 km/h 8 km/h 86% 1.27 mm
01:39 5.6 °C 3.6 °C 1019.5 hPa NE 8 km/h 11.3 km/h 87% 1.78 mm
01:44 5.4 °C 3.4 °C 1019.5 hPa NE 3.2 km/h 11.3 km/h 87% 2.03 mm
01:49 5.4 °C 3.6 °C 1020.2 hPa NNE 3.2 km/h 9.7 km/h 88% 2.03 mm
01:54 5.4 °C 3.6 °C 1019.9 hPa ENE 6.4 km/h 6.4 km/h 88% 1.78 mm
01:59 5.3 °C 3.5 °C 1019.9 hPa NE 8 km/h 11.3 km/h 88% 1.78 mm
02:04 5.3 °C 3.5 °C 1020.2 hPa NE 4.8 km/h 11.3 km/h 88% 2.54 mm
02:09 5.3 °C 3.5 °C 1019.9 hPa NE 4.8 km/h 8 km/h 88% 3.56 mm
02:14 5.3 °C 3.6 °C 1019.9 hPa NE 4.8 km/h 8 km/h 89% 4.06 mm
02:19 5.2 °C 3.6 °C 1019.9 hPa ENE 3.2 km/h 8 km/h 89% 4.32 mm
02:24 5.2 °C 3.6 °C 1020.2 hPa ENE 1.6 km/h 8 km/h 89% 4.06 mm
02:29 5.2 °C 3.6 °C 1019.9 hPa ESE 3.2 km/h 4.8 km/h 89% 4.32 mm
02:34 5.2 °C 3.5 °C 1019.9 hPa ENE 3.2 km/h 11.3 km/h 89% 4.83 mm
02:39 5.2 °C 3.7 °C 1020.2 hPa NE 3.2 km/h 6.4 km/h 90% 4.57 mm
02:44 5.2 °C 3.7 °C 1019.9 hPa NE 1.6 km/h 8 km/h 90% 4.57 mm
02:49 5.2 °C 3.7 °C 1020.2 hPa NE 3.2 km/h 6.4 km/h 90% 4.83 mm
02:54 5.2 °C 3.7 °C 1019.5 hPa East 9.7 km/h 9.7 km/h 90% 5.08 mm
02:59 5.1 °C 3.6 °C 1019.9 hPa NE 4.8 km/h 9.7 km/h 90% 5.08 mm
03:04 5.1 °C 3.6 °C 1019.9 hPa NE 3.2 km/h 9.7 km/h 90% 4.06 mm
03:09 5.1 °C 3.6 °C 1019.9 hPa NE 4.8 km/h 9.7 km/h 90% 3.05 mm
03:14 5.1 °C 3.6 °C 1019.9 hPa NE 6.4 km/h 11.3 km/h 90% 2.54 mm
03:19 5.1 °C 3.7 °C 1020.2 hPa NE 4.8 km/h 11.3 km/h 91% 2.29 mm
03:24 5.1 °C 3.7 °C 1020.2 hPa NE 4.8 km/h 8 km/h 91% 2.29 mm
03:29 5.1 °C 3.7 °C 1020.2 hPa NE 3.2 km/h 8 km/h 91% 1.78 mm
03:34 4.9 °C 3.4 °C 1019.9 hPa NE 4.8 km/h 9.7 km/h 90% 1.02 mm
03:39 4.9 °C 3.6 °C 1019.9 hPa NE 6.4 km/h 11.3 km/h 91% 0.76 mm
03:44 4.8 °C 3.5 °C 1019.9 hPa NE 6.4 km/h 16.1 km/h 91% 0.51 mm
03:49 4.8 °C 3.5 °C 1019.9 hPa NE 6.4 km/h 12.9 km/h 91% 0.25 mm
03:54 4.8 °C 3.5 °C 1019.9 hPa Calm   9.7 km/h 91% 0 mm
03:59 4.8 °C 3.5 °C 1020.2 hPa NNE 4.8 km/h 9.7 km/h 91% 0 mm
04:04 4.8 °C 3.4 °C 1020.2 hPa NNE 6.4 km/h 9.7 km/h 91% 0 mm
04:09 4.8 °C 3.4 °C 1019.9 hPa NNE 4.8 km/h 9.7 km/h 91% 0 mm
04:14 4.7 °C 3.4 °C 1019.9 hPa NE 4.8 km/h 11.3 km/h 91% 0 mm
04:19 4.7 °C 3.3 °C 1020.2 hPa NE 6.4 km/h 11.3 km/h 91% 0.25 mm
04:24 4.6 °C 3.3 °C 1020.2 hPa NE 6.4 km/h 14.5 km/h 91% 0.25 mm
04:29 4.6 °C 3.2 °C 1020.5 hPa NE 8 km/h 9.7 km/h 91% 0.25 mm
04:39 4.4 °C 3.1 °C 1020.2 hPa NE 8 km/h 17.7 km/h 91% 0.25 mm
04:44 4.3 °C 3 °C 1019.9 hPa ENE 14.5 km/h 14.5 km/h 91% 0.25 mm
04:49 4.3 °C 2.9 °C 1019.9 hPa NE 8 km/h 17.7 km/h 91% 0.25 mm
04:54 4.2 °C 2.8 °C 1020.5 hPa NNE 4.8 km/h 14.5 km/h 91% 0.51 mm
04:59 4.1 °C 2.8 °C 1020.2 hPa NNE 4.8 km/h 14.5 km/h 91% 0.51 mm
05:04 4.1 °C 2.7 °C 1020.2 hPa NE 6.4 km/h 14.5 km/h 91% 0.51 mm
05:09 3.9 °C 2.6 °C 1019.9 hPa NE 6.4 km/h 17.7 km/h 91% 0.51 mm
05:14 3.9 °C 2.6 °C 1020.2 hPa NE 8 km/h 17.7 km/h 91% 0.51 mm
05:19 3.9 °C 2.6 °C 1020.2 hPa NE 8 km/h 17.7 km/h 91% 0.25 mm
05:24 3.8 °C 2.5 °C 1019.9 hPa NE 8 km/h 17.7 km/h 91% 0.25 mm
05:29 3.8 °C 2.4 °C 1020.2 hPa NE 8 km/h 19.3 km/h 91% 0.25 mm
05:34 3.8 °C 2.4 °C 1020.5 hPa NE 8 km/h 19.3 km/h 91% 0.25 mm
05:39 3.7 °C 2.4 °C 1020.5 hPa NE 11.3 km/h 19.3 km/h 91% 0.25 mm
05:44 3.7 °C 2.3 °C 1020.5 hPa NNE 8 km/h 17.7 km/h 91% 0.25 mm
05:49 3.7 °C 2.3 °C 1020.9 hPa NE 4.8 km/h 16.1 km/h 91% 0.25 mm
05:54 3.6 °C 2.3 °C 1020.5 hPa NE 11.3 km/h 17.7 km/h 91% 0 mm
05:59 3.5 °C 2.2 °C 1020.9 hPa NE 20.9 km/h 22.5 km/h 91% 0 mm
06:04 3.4 °C 2.1 °C 1020.5 hPa NE 11.3 km/h 22.5 km/h 91% 0 mm
06:09 3.3 °C 2 °C 1020.5 hPa NE 11.3 km/h 25.7 km/h 91% 0 mm
06:14 3.3 °C 1.9 °C 1020.5 hPa NE 12.9 km/h 25.7 km/h 91% 0 mm
06:19 3.2 °C 1.9 °C 1020.5 hPa NE 11.3 km/h 22.5 km/h 91% 0 mm
06:24 3.2 °C 1.8 °C 1020.5 hPa NE 9.7 km/h 17.7 km/h 91% 0 mm
06:29 3.2 °C 1.8 °C 1020.9 hPa NE 9.7 km/h 22.5 km/h 91% 0 mm
06:34 3.1 °C 1.7 °C 1020.9 hPa NE 11.3 km/h 22.5 km/h 91% 0 mm
06:44 3 °C 1.7 °C 1020.5 hPa ENE 11.3 km/h 22.5 km/h 91% 0 mm
06:49 3 °C 1.7 °C 1020.5 hPa NE 14.5 km/h 19.3 km/h 91% 0 mm
06:54 2.9 °C 1.6 °C 1020.5 hPa NE 9.7 km/h 22.5 km/h 91% 0 mm
06:59 2.9 °C 1.6 °C 1020.9 hPa NE 6.4 km/h 17.7 km/h 91% 0 mm
07:04 2.9 °C 1.6 °C 1021.2 hPa NNE 12.9 km/h 19.3 km/h 91% 0 mm
07:09 2.9 °C 1.6 °C 1021.2 hPa NE 11.3 km/h 19.3 km/h 91% 0 mm
07:14 2.9 °C 1.6 °C 1021.6 hPa NE 9.7 km/h 19.3 km/h 91% 0 mm
07:19 2.9 °C 1.6 °C 1021.6 hPa NE 9.7 km/h 19.3 km/h 91% 0 mm
07:24 2.8 °C 1.5 °C 1021.6 hPa NE 9.7 km/h 19.3 km/h 91% 0 mm
07:29 2.8 °C 1.5 °C 1021.6 hPa NE 9.7 km/h 19.3 km/h 91% 0 mm
07:34 2.8 °C 1.5 °C 1021.6 hPa NE 8 km/h 19.3 km/h 91% 0 mm
07:39 2.8 °C 1.4 °C 1021.6 hPa NE 9.7 km/h 19.3 km/h 91% 0 mm
07:44 2.8 °C 1.4 °C 1021.6 hPa NE 8 km/h 19.3 km/h 91% 0 mm
07:49 2.8 °C 1.4 °C 1021.2 hPa NE 6.4 km/h 17.7 km/h 91% 0.25 mm
07:54 2.8 °C 1.4 °C 1021.6 hPa NE 6.4 km/h 17.7 km/h 91% 0.25 mm
07:59 2.8 °C 1.4 °C 1021.9 hPa NE 4.8 km/h 16.1 km/h 91% 0.25 mm
08:04 2.7 °C 1.4 °C 1021.9 hPa NNE 8 km/h 17.7 km/h 91% 0.25 mm
08:09 2.7 °C 1.4 °C 1021.9 hPa NE 11.3 km/h 19.3 km/h 91% 0.25 mm
08:14 2.7 °C 1.3 °C 1022.2 hPa NE 9.7 km/h 22.5 km/h 91% 0.25 mm
08:19 2.6 °C 1.3 °C 1022.2 hPa NE 11.3 km/h 22.5 km/h 91% 0.25 mm
08:24 2.5 °C 1.2 °C 1022.6 hPa NE 11.3 km/h 24.1 km/h 91% 0.25 mm
08:29 2.4 °C 1.1 °C 1022.9 hPa NE 11.3 km/h 24.1 km/h 91% 0.25 mm
08:34 2.4 °C 1.1 °C 1022.9 hPa NE 11.3 km/h 22.5 km/h 91% 0.25 mm
08:39 2.4 °C 1.1 °C 1022.9 hPa NE 9.7 km/h 20.9 km/h 91% 0.51 mm
08:44 2.4 °C 1.1 °C 1023.2 hPa NE 8 km/h 19.3 km/h 91% 0.76 mm
08:49 2.3 °C 1 °C 1022.9 hPa NNE 6.4 km/h 20.9 km/h 91% 0.76 mm
08:54 2.3 °C 0.9 °C 1023.2 hPa ENE 14.5 km/h 22.5 km/h 91% 0.76 mm
08:59 2.2 °C 0.9 °C 1023.2 hPa NNE 9.7 km/h 19.3 km/h 91% 1.02 mm
09:04 2.2 °C 0.8 °C 1023.2 hPa NE 6.4 km/h 29 km/h 91% 1.27 mm
09:09 2.1 °C 0.8 °C 1023.2 hPa East 11.3 km/h 24.1 km/h 91% 1.52 mm
09:14 2.1 °C 0.7 °C 1023.2 hPa ENE 8 km/h 20.9 km/h 91% 1.78 mm
09:19 2.1 °C 0.7 °C 1023.6 hPa NE 9.7 km/h 20.9 km/h 91% 1.78 mm
09:24 2 °C 0.7 °C 1023.6 hPa NE 11.3 km/h 27.4 km/h 91% 2.03 mm
09:29 1.9 °C 0.6 °C 1023.9 hPa NE 12.9 km/h 27.4 km/h 91% 2.29 mm
09:34 1.9 °C 0.6 °C 1023.9 hPa NE 11.3 km/h 27.4 km/h 91% 2.54 mm
09:39 1.9 °C 0.6 °C 1023.9 hPa NE 11.3 km/h 20.9 km/h 91% 2.54 mm
09:44 1.9 °C 0.6 °C 1023.6 hPa NE 17.7 km/h 19.3 km/h 91% 2.79 mm
09:49 1.9 °C 0.6 °C 1023.9 hPa NE 9.7 km/h 20.9 km/h 91% 2.79 mm
09:54 1.9 °C 0.6 °C 1023.9 hPa NE 11.3 km/h 20.9 km/h 91% 3.05 mm
09:59 1.9 °C 0.6 °C 1023.9 hPa NE 11.3 km/h 19.3 km/h 91% 3.3 mm
10:04 1.9 °C 0.6 °C 1024.3 hPa NNE 8 km/h 17.7 km/h 91% 3.3 mm
10:09 1.9 °C 0.6 °C 1024.3 hPa NE 8 km/h 17.7 km/h 91% 3.3 mm
10:14 1.9 °C 0.6 °C 1024.6 hPa NE 9.7 km/h 20.9 km/h 91% 3.05 mm
10:19 1.9 °C 0.6 °C 1024.6 hPa ENE 11.3 km/h 16.1 km/h 91% 3.05 mm
10:24 1.9 °C 0.6 °C 1024.6 hPa ENE 11.3 km/h 20.9 km/h 91% 3.05 mm
10:29 2 °C 0.7 °C 1024.3 hPa NE 11.3 km/h 20.9 km/h 91% 2.79 mm
10:34 1.9 °C 0.6 °C 1024.6 hPa NE 8 km/h 25.7 km/h 91% 2.79 mm
10:39 1.9 °C 0.6 °C 1024.6 hPa NNE 9.7 km/h 20.9 km/h 91% 2.79 mm
10:44 1.9 °C 0.6 °C 1024.9 hPa East 11.3 km/h 22.5 km/h 91% 2.29 mm
10:49 1.9 °C 0.6 °C 1024.9 hPa NE 6.4 km/h 19.3 km/h 91% 2.29 mm
10:54 1.9 °C 0.6 °C 1024.9 hPa NE 9.7 km/h 20.9 km/h 91% 2.29 mm
10:59 1.9 °C 0.6 °C 1024.9 hPa NE 9.7 km/h 20.9 km/h 91% 2.03 mm
11:04 1.9 °C 0.6 °C 1025.3 hPa NE 12.9 km/h 22.5 km/h 91% 1.78 mm
11:09 2 °C 0.7 °C 1025.3 hPa NE 11.3 km/h 22.5 km/h 91% 1.52 mm
11:14 1.9 °C 0.6 °C 1026 hPa NE 11.3 km/h 27.4 km/h 91% 1.78 mm
11:19 1.9 °C 0.5 °C 1026 hPa NE 17.7 km/h 22.5 km/h 90% 1.78 mm
11:24 1.9 °C 0.4 °C 1026 hPa NE 11.3 km/h 22.5 km/h 90% 1.78 mm
11:29 1.9 °C 0.5 °C 1026.3 hPa ENE 4.8 km/h 20.9 km/h 90% 2.03 mm
11:34 1.9 °C 0.5 °C 1026.3 hPa NE 6.4 km/h 20.9 km/h 90% 1.78 mm
11:39 1.9 °C 0.5 °C 1026.3 hPa NE 19.3 km/h 22.5 km/h 90% 1.52 mm
11:44 2.1 °C 0.6 °C 1026.3 hPa NE 12.9 km/h 24.1 km/h 90% 1.78 mm
11:49 2.1 °C 0.6 °C 1026 hPa NE 9.7 km/h 19.3 km/h 90% 1.52 mm
11:54 2.1 °C 0.6 °C 1026.3 hPa NE 11.3 km/h 25.7 km/h 90% 1.27 mm
11:59 2.1 °C 0.6 °C 1026.3 hPa NE 11.3 km/h 25.7 km/h 90% 1.27 mm
12:04 2.1 °C 0.6 °C 1026.3 hPa NE 11.3 km/h 19.3 km/h 90% 1.27 mm
12:09 2.1 °C 0.6 °C 1026.3 hPa NE 11.3 km/h 22.5 km/h 90% 1.27 mm
12:14 2.1 °C 0.6 °C 1026.3 hPa NE 12.9 km/h 19.3 km/h 90% 1.02 mm
12:19 2.1 °C 0.6 °C 1026.3 hPa ENE 6.4 km/h 22.5 km/h 90% 1.27 mm
12:24 2.1 °C 0.6 °C 1026.3 hPa East 9.7 km/h 19.3 km/h 90% 1.02 mm
12:29 2.1 °C 0.6 °C 1026.3 hPa NE 9.7 km/h 19.3 km/h 90% 1.02 mm
12:34 2 °C 0.6 °C 1026.6 hPa ENE 9.7 km/h 17.7 km/h 90% 1.27 mm
12:39 2.1 °C 0.6 °C 1026.6 hPa ENE 9.7 km/h 17.7 km/h 90% 1.27 mm
12:44 2.1 °C 0.7 °C 1026.6 hPa ENE 8 km/h 17.7 km/h 90% 1.02 mm
12:49 2.2 °C 0.7 °C 1026.3 hPa ENE 8 km/h 17.7 km/h 90% 1.27 mm
12:54 2.1 °C 0.7 °C 1026.3 hPa ENE 8 km/h 20.9 km/h 90% 1.27 mm
12:59 2.2 °C 0.6 °C 1026.3 hPa East 4.8 km/h 20.9 km/h 89% 1.27 mm
13:04 2.2 °C 0.8 °C 1026.6 hPa ENE 8 km/h 20.9 km/h 90% 1.27 mm
13:09 2.3 °C 0.8 °C 1026.3 hPa East 8 km/h 17.7 km/h 90% 1.52 mm
13:14 2.3 °C 0.8 °C 1026.3 hPa ENE 17.7 km/h 17.7 km/h 90% 1.52 mm
13:19 2.3 °C 0.7 °C 1026.3 hPa East 11.3 km/h 24.1 km/h 89% 1.52 mm
13:24 2.4 °C 0.8 °C 1026.6 hPa NE 6.4 km/h 16.1 km/h 89% 1.52 mm
13:29 2.4 °C 0.8 °C 1026.6 hPa NE 8 km/h 14.5 km/h 89% 1.52 mm
13:34 2.3 °C 0.7 °C 1026.6 hPa ENE 8 km/h 19.3 km/h 89% 1.27 mm
13:39 2.3 °C 0.7 °C 1026.6 hPa NE 9.7 km/h 19.3 km/h 89% 1.52 mm
13:44 2.3 °C 0.7 °C 1026.6 hPa NE 9.7 km/h 19.3 km/h 89% 1.78 mm
13:49 2.3 °C 0.7 °C 1026.6 hPa NE 9.7 km/h 19.3 km/h 89% 1.78 mm
13:54 2.3 °C 0.8 °C 1026.6 hPa NE 9.7 km/h 19.3 km/h 90% 2.03 mm
13:59 2.3 °C 0.8 °C 1026.6 hPa NE 12.9 km/h 16.1 km/h 90% 2.03 mm
14:04 2.3 °C 0.8 °C 1026.6 hPa NE 9.7 km/h 17.7 km/h 90% 2.29 mm
14:09 2.3 °C 0.8 °C 1026.6 hPa NNE 9.7 km/h 22.5 km/h 90% 2.29 mm
14:14 2.3 °C 0.8 °C 1026.3 hPa East 16.1 km/h 22.5 km/h 90% 2.29 mm
14:19 2.3 °C 0.8 °C 1026 hPa NE 9.7 km/h 20.9 km/h 90% 2.03 mm
14:24 2.5 °C 1 °C 1025.6 hPa ENE 3.2 km/h 22.5 km/h 90% 2.03 mm
14:29 2.7 °C 1.2 °C 1026.6 hPa NNE 14.5 km/h 17.7 km/h 90% 1.78 mm
14:34 2.7 °C 1.2 °C 1026 hPa ESE 6.4 km/h 17.7 km/h 90% 1.78 mm
14:39 2.9 °C 1.3 °C 1026.6 hPa ENE 9.7 km/h 19.3 km/h 89% 1.52 mm
14:44 2.8 °C 1.2 °C 1026 hPa NE 9.7 km/h 22.5 km/h 89% 1.27 mm
14:49 2.8 °C 1.2 °C 1026.3 hPa ENE 11.3 km/h 22.5 km/h 89% 1.02 mm
14:54 2.7 °C 0.9 °C 1026.6 hPa ENE 11.3 km/h 25.7 km/h 88% 0.76 mm
14:59 2.8 °C 1.2 °C 1026.3 hPa ENE 9.7 km/h 25.7 km/h 89% 0.51 mm
15:04 3 °C 1.2 °C 1026.3 hPa ENE 8 km/h 17.7 km/h 88% 0.25 mm
15:09 3.1 °C 1.3 °C 1026.6 hPa NE 11.3 km/h 20.9 km/h 88% 0 mm
15:14 3 °C 1.1 °C 1026.6 hPa ENE 16.1 km/h 20.9 km/h 87% 0 mm
15:19 2.9 °C 1 °C 1027 hPa NE 17.7 km/h 22.5 km/h 87% 0 mm
15:24 2.8 °C 0.9 °C 1027 hPa ENE 6.4 km/h 25.7 km/h 87% 0 mm
15:29 2.8 °C 0.8 °C 1026.6 hPa East 11.3 km/h 17.7 km/h 87% 0 mm
15:34 2.8 °C 0.8 °C 1027 hPa ENE 6.4 km/h 20.9 km/h 87% 0 mm
15:39 2.7 °C 0.6 °C 1026.6 hPa ENE 11.3 km/h 24.1 km/h 86% 0 mm
15:44 2.7 °C 0.6 °C 1026.6 hPa ENE 12.9 km/h 25.7 km/h 86% 0 mm
15:49 2.7 °C 0.7 °C 1026.6 hPa NE 14.5 km/h 25.7 km/h 87% 0 mm
15:54 2.6 °C 0.7 °C 1026.6 hPa NE 12.9 km/h 24.1 km/h 87% 0 mm
15:59 2.7 °C 0.7 °C 1027.3 hPa NE 11.3 km/h 24.1 km/h 87% 0 mm
16:04 2.7 °C 0.8 °C 1027 hPa NE 11.3 km/h 22.5 km/h 87% 0 mm
16:09 2.8 °C 0.8 °C 1027 hPa ESE 11.3 km/h 16.1 km/h 87% 0 mm
16:14 2.8 °C 0.8 °C 1027 hPa ENE 14.5 km/h 20.9 km/h 87% 0 mm
16:19 2.9 °C 1 °C 1027 hPa ENE 11.3 km/h 19.3 km/h 87% 0 mm
16:24 3.2 °C 1.2 °C 1027 hPa ENE 8 km/h 22.5 km/h 87% 0 mm
16:29 3.4 °C 1.4 °C 1026.6 hPa East 16.1 km/h 24.1 km/h 87% 0 mm
16:34 3.4 °C 1.3 °C 1026.6 hPa NE 20.9 km/h 24.1 km/h 86% 0 mm
16:39 3.4 °C 1.3 °C 1027 hPa NE 12.9 km/h 25.7 km/h 86% 0 mm
16:44 3.6 °C 1.3 °C 1027 hPa ENE 25.7 km/h 25.7 km/h 85% 0 mm
16:49 3.5 °C 1.1 °C 1027 hPa NE 12.9 km/h 25.7 km/h 84% 0 mm
16:54 3.4 °C 1 °C 1027 hPa ENE 12.9 km/h 25.7 km/h 84% 0 mm
16:59 3.4 °C 1.2 °C 1027 hPa ENE 11.3 km/h 22.5 km/h 85% 0 mm
17:04 3.4 °C 1.1 °C 1026.6 hPa ENE 9.7 km/h 22.5 km/h 85% 0 mm
17:09 3.4 °C 1.1 °C 1027 hPa NE 4.8 km/h 20.9 km/h 85% 0 mm
17:14 3.3 °C 1 °C 1027 hPa NE 6.4 km/h 20.9 km/h 85% 0 mm
17:19 3.2 °C 0.9 °C 1027 hPa ENE 9.7 km/h 24.1 km/h 85% 0 mm
17:24 3.1 °C 0.8 °C 1027 hPa East 16.1 km/h 22.5 km/h 85% 0 mm
17:29 3.1 °C 0.8 °C 1027 hPa ESE 6.4 km/h 20.9 km/h 85% 0 mm
17:34 3.1 °C 0.8 °C 1027 hPa ENE 12.9 km/h 19.3 km/h 85% 0 mm
17:39 3.1 °C 0.8 °C 1026.6 hPa ENE 17.7 km/h 22.5 km/h 85% 0 mm
17:44 3 °C 0.7 °C 1027 hPa East 11.3 km/h 24.1 km/h 85% 0 mm
17:49 3 °C 0.7 °C 1027 hPa ENE 12.9 km/h 24.1 km/h 85% 0 mm
17:54 2.9 °C 0.8 °C 1027 hPa ENE 11.3 km/h 22.5 km/h 86% 0 mm
17:59 2.8 °C 0.6 °C 1027 hPa ENE 11.3 km/h 22.5 km/h 85% 0 mm
18:04 2.8 °C 0.7 °C 1027 hPa ENE 11.3 km/h 20.9 km/h 86% 0 mm
18:09 2.8 °C 0.7 °C 1027 hPa NE 11.3 km/h 22.5 km/h 86% 0 mm
18:14 2.7 °C 0.6 °C 1027 hPa East 11.3 km/h 20.9 km/h 86% 0 mm
18:19 2.7 °C 0.6 °C 1027 hPa ENE 9.7 km/h 20.9 km/h 86% 0 mm
18:24 2.8 °C 0.7 °C 1026.6 hPa ENE 8 km/h 17.7 km/h 86% 0 mm
18:29 2.7 °C 0.8 °C 1026.6 hPa ENE 17.7 km/h 20.9 km/h 87% 0 mm
18:34 2.7 °C 0.6 °C 1027 hPa NNE 9.7 km/h 17.7 km/h 86% 0 mm
18:39 2.6 °C 0.4 °C 1027 hPa NE 11.3 km/h 25.7 km/h 86% 0 mm
18:44 2.6 °C 0.6 °C 1027.3 hPa NE 4.8 km/h 20.9 km/h 87% 0 mm
18:49 2.6 °C 0.6 °C 1027.7 hPa ENE 8 km/h 20.9 km/h 87% 0 mm
18:54 2.6 °C 0.7 °C 1027.3 hPa ENE 6.4 km/h 20.9 km/h 87% 0 mm
18:59 2.6 °C 0.6 °C 1027.3 hPa ENE 8 km/h 20.9 km/h 87% 0 mm
19:04 2.5 °C 0.4 °C 1027.3 hPa East 9.7 km/h 16.1 km/h 86% 0 mm
19:09 2.4 °C 0.3 °C 1027.3 hPa ENE 16.1 km/h 25.7 km/h 86% 0 mm
19:14 2.4 °C 0.3 °C 1027.3 hPa ENE 11.3 km/h 20.9 km/h 86% 0 mm
19:19 2.4 °C 0.3 °C 1027 hPa ENE 9.7 km/h 20.9 km/h 86% 0 mm
19:24 2.4 °C 0.3 °C 1027 hPa ENE 9.7 km/h 22.5 km/h 86% 0 mm
19:29 2.4 °C 0.3 °C 1027 hPa ENE 9.7 km/h 22.5 km/h 86% 0 mm
19:34 2.3 °C 0.2 °C 1027.3 hPa ENE 9.7 km/h 22.5 km/h 86% 0 mm
19:39 2.3 °C 0.2 °C 1027.3 hPa East 8 km/h 22.5 km/h 86% 0 mm
19:44 2.3 °C 0.2 °C 1027.3 hPa NE 6.4 km/h 22.5 km/h 86% 0 mm
19:49 2.3 °C 0.2 °C 1027.3 hPa ENE 12.9 km/h 20.9 km/h 86% 0 mm
19:54 2.3 °C 0.2 °C 1027.3 hPa ENE 9.7 km/h 20.9 km/h 86% 0 mm
19:59 2.3 °C 0.2 °C 1027.3 hPa East 8 km/h 22.5 km/h 86% 0 mm
20:04 2.3 °C 0.2 °C 1027 hPa East 17.7 km/h 22.5 km/h 86% 0 mm
20:09 2.3 °C 0.2 °C 1026.6 hPa ESE 8 km/h 24.1 km/h 86% 0 mm
20:14 2.2 °C 0.1 °C 1027 hPa ENE 6.4 km/h 24.1 km/h 86% 0 mm
20:19 2.2 °C 0.1 °C 1027.3 hPa NE 9.7 km/h 14.5 km/h 86% 0 mm
20:24 2.2 °C 0.1 °C 1027.3 hPa NNE 4.8 km/h 20.9 km/h 86% 0 mm
20:29 2.2 °C 0.1 °C 1027.3 hPa ENE 11.3 km/h 20.9 km/h 86% 0 mm
20:34 2.2 °C 0.1 °C 1027.3 hPa ENE 9.7 km/h 20.9 km/h 86% 0 mm
20:39 2.2 °C 0.1 °C 1027.7 hPa ENE 9.7 km/h 17.7 km/h 86% 0 mm
20:44 2.2 °C 0.1 °C 1027.7 hPa ENE 9.7 km/h 24.1 km/h 86% 0 mm
20:49 2.1 °C 0 °C 1027.7 hPa ENE 11.3 km/h 24.1 km/h 86% 0 mm
20:54 2.2 °C 0.1 °C 1027.7 hPa ENE 11.3 km/h 24.1 km/h 86% 0 mm
20:59 2.2 °C 0.1 °C 1027.7 hPa NE 9.7 km/h 22.5 km/h 86% 0 mm
21:04 2.2 °C 0.1 °C 1027.7 hPa NNE 6.4 km/h 20.9 km/h 86% 0 mm
21:09 2.2 °C 0.1 °C 1027.7 hPa East 4.8 km/h 22.5 km/h 86% 0 mm
21:14 2.1 °C 0 °C 1027.7 hPa NE 12.9 km/h 20.9 km/h 86% 0 mm
21:19 2.2 °C 0.1 °C 1028 hPa East 9.7 km/h 24.1 km/h 86% 0 mm
21:24 2.1 °C 0 °C 1028 hPa ENE 6.4 km/h 17.7 km/h 86% 0 mm
21:29 2.1 °C -0.1 °C 1027.7 hPa SE 6.4 km/h 19.3 km/h 86% 0 mm
21:34 2 °C -0.1 °C 1027.7 hPa ENE 9.7 km/h 19.3 km/h 86% 0 mm
21:39 1.9 °C -0.2 °C 1027.7 hPa ENE 9.7 km/h 20.9 km/h 86% 0 mm
21:44 1.9 °C -0.2 °C 1027.7 hPa ENE 12.9 km/h 24.1 km/h 86% 0 mm
21:49 1.9 °C -0.2 °C 1027.7 hPa ENE 12.9 km/h 24.1 km/h 86% 0 mm
21:54 1.9 °C -0.2 °C 1027.3 hPa ENE 12.9 km/h 25.7 km/h 86% 0 mm
21:59 1.9 °C -0.2 °C 1027.3 hPa NE 11.3 km/h 24.1 km/h 86% 0 mm
22:04 1.8 °C -0.3 °C 1027.7 hPa ENE 11.3 km/h 24.1 km/h 86% 0 mm
22:09 1.8 °C -0.1 °C 1027.7 hPa NE 11.3 km/h 27.4 km/h 87% 0 mm
22:14 1.8 °C -0.2 °C 1027.3 hPa NE 17.7 km/h 25.7 km/h 87% 0 mm
22:19 1.8 °C -0.1 °C 1027.3 hPa East 8 km/h 24.1 km/h 87% 0 mm
22:24 1.8 °C -0.2 °C 1027.3 hPa NE 6.4 km/h 25.7 km/h 87% 0.25 mm
22:29 1.7 °C -0.2 °C 1027.7 hPa East 4.8 km/h 17.7 km/h 87% 0.25 mm
22:34 1.7 °C -0.1 °C 1028 hPa ENE 11.3 km/h 27.4 km/h 88% 0.25 mm
22:39 1.7 °C -0.1 °C 1028 hPa NE 9.7 km/h 27.4 km/h 88% 0.25 mm
22:44 1.7 °C -0.1 °C 1028 hPa NE 20.9 km/h 20.9 km/h 88% 0.25 mm
22:49 1.6 °C -0.2 °C 1027.7 hPa NE 9.7 km/h 19.3 km/h 88% 0.25 mm
22:54 1.6 °C -0.2 °C 1027.7 hPa NE 11.3 km/h 22.5 km/h 88% 0.25 mm
22:59 1.6 °C -0.1 °C 1027.7 hPa East 4.8 km/h 20.9 km/h 89% 0.25 mm
23:04 1.5 °C -0.3 °C 1027.7 hPa ENE 9.7 km/h 22.5 km/h 88% 0.25 mm
23:09 1.5 °C -0.1 °C 1027.3 hPa ENE 8 km/h 22.5 km/h 89% 0.25 mm
23:14 1.5 °C -0.1 °C 1027.3 hPa ENE 8 km/h 22.5 km/h 89% 0.25 mm
23:19 1.5 °C -0.1 °C 1027.3 hPa ENE 9.7 km/h 22.5 km/h 89% 0.25 mm
23:24 1.4 °C -0.2 °C 1027.3 hPa ENE 9.7 km/h 24.1 km/h 89% 0 mm
23:29 1.4 °C -0.2 °C 1027.3 hPa ENE 9.7 km/h 24.1 km/h 89% 0 mm
23:34 1.4 °C -0.2 °C 1027.3 hPa NE 9.7 km/h 22.5 km/h 89% 0.25 mm
23:39 1.4 °C -0.2 °C 1027.3 hPa ENE 9.7 km/h 22.5 km/h 89% 0.25 mm
23:44 1.4 °C -0.2 °C 1027.3 hPa East 8 km/h 19.3 km/h 89% 0.25 mm
23:49 1.4 °C -0.2 °C 1027 hPa East 4.8 km/h 17.7 km/h 89% 0.25 mm
23:54 1.4 °C -0.2 °C 1027 hPa NE 12.9 km/h 20.9 km/h 89% 0.25 mm
23:59 1.3 °C -0.3 °C 1027 hPa ENE 11.3 km/h 19.3 km/h 89% 0.25 mm
Buffalo, New York, USA
Compliments of Weather Underground - 2.5 mb